sensor_id;sensor_type;location;lat;lon;timestamp;P1;durP1;ratioP1;P2;durP2;ratioP2
12921;SDS011;6528;48.086;16.282;2023-02-04T00:00:04;1.33;;;0.50;;
12921;SDS011;6528;48.086;16.282;2023-02-04T00:02:33;1.37;;;0.87;;
12921;SDS011;6528;48.086;16.282;2023-02-04T00:05:00;0.83;;;0.40;;
12921;SDS011;6528;48.086;16.282;2023-02-04T00:07:27;0.90;;;0.60;;
12921;SDS011;6528;48.086;16.282;2023-02-04T00:09:53;1.87;;;0.90;;
12921;SDS011;6528;48.086;16.282;2023-02-04T00:12:20;1.20;;;0.70;;
12921;SDS011;6528;48.086;16.282;2023-02-04T00:14:47;0.93;;;0.70;;
12921;SDS011;6528;48.086;16.282;2023-02-04T00:17:14;0.80;;;0.70;;
12921;SDS011;6528;48.086;16.282;2023-02-04T00:19:40;0.67;;;0.63;;
12921;SDS011;6528;48.086;16.282;2023-02-04T00:22:07;0.97;;;0.67;;
12921;SDS011;6528;48.086;16.282;2023-02-04T00:24:34;1.00;;;0.47;;
12921;SDS011;6528;48.086;16.282;2023-02-04T00:27:02;0.73;;;0.40;;
12921;SDS011;6528;48.086;16.282;2023-02-04T00:29:30;1.07;;;0.80;;
12921;SDS011;6528;48.086;16.282;2023-02-04T00:31:57;1.07;;;0.90;;
12921;SDS011;6528;48.086;16.282;2023-02-04T00:34:24;1.13;;;0.50;;
12921;SDS011;6528;48.086;16.282;2023-02-04T00:36:51;1.07;;;0.57;;
12921;SDS011;6528;48.086;16.282;2023-02-04T00:39:17;0.87;;;0.47;;
12921;SDS011;6528;48.086;16.282;2023-02-04T00:41:44;1.07;;;0.63;;
12921;SDS011;6528;48.086;16.282;2023-02-04T00:44:11;1.07;;;0.57;;
12921;SDS011;6528;48.086;16.282;2023-02-04T00:46:40;0.40;;;0.40;;
12921;SDS011;6528;48.086;16.282;2023-02-04T00:49:08;1.27;;;0.60;;
12921;SDS011;6528;48.086;16.282;2023-02-04T00:51:40;1.17;;;1.00;;
12921;SDS011;6528;48.086;16.282;2023-02-04T00:54:11;1.03;;;0.77;;
12921;SDS011;6528;48.086;16.282;2023-02-04T00:56:41;2.10;;;1.07;;
12921;SDS011;6528;48.086;16.282;2023-02-04T00:59:08;1.30;;;0.67;;
12921;SDS011;6528;48.086;16.282;2023-02-04T01:01:35;1.77;;;0.70;;
12921;SDS011;6528;48.086;16.282;2023-02-04T01:04:01;1.47;;;0.53;;
12921;SDS011;6528;48.086;16.282;2023-02-04T01:06:28;1.53;;;0.87;;
12921;SDS011;6528;48.086;16.282;2023-02-04T01:08:55;2.37;;;0.80;;
12921;SDS011;6528;48.086;16.282;2023-02-04T01:11:22;1.63;;;0.90;;
12921;SDS011;6528;48.086;16.282;2023-02-04T01:13:49;0.77;;;0.50;;
12921;SDS011;6528;48.086;16.282;2023-02-04T01:16:15;1.27;;;0.83;;
12921;SDS011;6528;48.086;16.282;2023-02-04T01:18:42;0.80;;;0.70;;
12921;SDS011;6528;48.086;16.282;2023-02-04T01:21:09;0.47;;;0.43;;
12921;SDS011;6528;48.086;16.282;2023-02-04T01:23:36;0.80;;;0.80;;
12921;SDS011;6528;48.086;16.282;2023-02-04T01:26:03;0.90;;;0.60;;
12921;SDS011;6528;48.086;16.282;2023-02-04T01:28:30;1.10;;;0.80;;
12921;SDS011;6528;48.086;16.282;2023-02-04T01:30:56;1.70;;;0.80;;
12921;SDS011;6528;48.086;16.282;2023-02-04T01:33:23;1.37;;;0.80;;
12921;SDS011;6528;48.086;16.282;2023-02-04T01:35:50;0.93;;;0.83;;
12921;SDS011;6528;48.086;16.282;2023-02-04T01:38:17;0.60;;;0.60;;
12921;SDS011;6528;48.086;16.282;2023-02-04T01:40:44;0.63;;;0.63;;
12921;SDS011;6528;48.086;16.282;2023-02-04T01:43:10;0.87;;;0.70;;
12921;SDS011;6528;48.086;16.282;2023-02-04T01:45:37;0.77;;;0.73;;
12921;SDS011;6528;48.086;16.282;2023-02-04T01:48:05;2.83;;;0.77;;
12921;SDS011;6528;48.086;16.282;2023-02-04T01:50:32;1.80;;;0.90;;
12921;SDS011;6528;48.086;16.282;2023-02-04T01:53:00;2.10;;;0.80;;
12921;SDS011;6528;48.086;16.282;2023-02-04T01:55:28;1.43;;;0.53;;
12921;SDS011;6528;48.086;16.282;2023-02-04T01:57:57;0.80;;;0.80;;
12921;SDS011;6528;48.086;16.282;2023-02-04T02:00:26;0.90;;;0.60;;
12921;SDS011;6528;48.086;16.282;2023-02-04T02:02:55;1.17;;;0.70;;
12921;SDS011;6528;48.086;16.282;2023-02-04T02:05:23;1.47;;;0.67;;
12921;SDS011;6528;48.086;16.282;2023-02-04T02:08:11;1.70;;;1.07;;
12921;SDS011;6528;48.086;16.282;2023-02-04T02:10:40;1.37;;;0.83;;
12921;SDS011;6528;48.086;16.282;2023-02-04T02:13:09;1.27;;;0.90;;
12921;SDS011;6528;48.086;16.282;2023-02-04T02:15:40;2.00;;;0.67;;
12921;SDS011;6528;48.086;16.282;2023-02-04T02:18:07;0.70;;;0.70;;
12921;SDS011;6528;48.086;16.282;2023-02-04T02:20:35;1.10;;;0.80;;
12921;SDS011;6528;48.086;16.282;2023-02-04T02:23:20;1.97;;;0.70;;
12921;SDS011;6528;48.086;16.282;2023-02-04T02:26:09;0.97;;;0.70;;
12921;SDS011;6528;48.086;16.282;2023-02-04T02:28:36;1.10;;;0.90;;
12921;SDS011;6528;48.086;16.282;2023-02-04T02:31:03;1.30;;;0.63;;
12921;SDS011;6528;48.086;16.282;2023-02-04T02:33:30;0.87;;;0.73;;
12921;SDS011;6528;48.086;16.282;2023-02-04T02:35:56;1.13;;;0.50;;
12921;SDS011;6528;48.086;16.282;2023-02-04T02:38:23;1.27;;;0.97;;
12921;SDS011;6528;48.086;16.282;2023-02-04T02:40:50;1.13;;;0.63;;
12921;SDS011;6528;48.086;16.282;2023-02-04T02:43:22;1.60;;;0.90;;
12921;SDS011;6528;48.086;16.282;2023-02-04T02:45:50;1.13;;;0.70;;
12921;SDS011;6528;48.086;16.282;2023-02-04T02:48:19;0.70;;;0.57;;
12921;SDS011;6528;48.086;16.282;2023-02-04T02:50:46;0.93;;;0.90;;
12921;SDS011;6528;48.086;16.282;2023-02-04T02:53:16;0.70;;;0.70;;
12921;SDS011;6528;48.086;16.282;2023-02-04T02:55:44;0.80;;;0.80;;
12921;SDS011;6528;48.086;16.282;2023-02-04T02:58:17;0.80;;;0.80;;
12921;SDS011;6528;48.086;16.282;2023-02-04T03:00:49;2.20;;;1.10;;
12921;SDS011;6528;48.086;16.282;2023-02-04T03:03:20;0.97;;;0.80;;
12921;SDS011;6528;48.086;16.282;2023-02-04T03:05:51;1.50;;;0.87;;
12921;SDS011;6528;48.086;16.282;2023-02-04T03:08:21;1.13;;;0.73;;
12921;SDS011;6528;48.086;16.282;2023-02-04T03:10:48;1.60;;;0.93;;
12921;SDS011;6528;48.086;16.282;2023-02-04T03:13:15;1.77;;;0.70;;
12921;SDS011;6528;48.086;16.282;2023-02-04T03:15:43;0.60;;;0.50;;
12921;SDS011;6528;48.086;16.282;2023-02-04T03:18:12;1.23;;;1.10;;
12921;SDS011;6528;48.086;16.282;2023-02-04T03:20:44;1.30;;;0.90;;
12921;SDS011;6528;48.086;16.282;2023-02-04T03:23:11;2.40;;;0.80;;
12921;SDS011;6528;48.086;16.282;2023-02-04T03:25:38;1.17;;;0.80;;
12921;SDS011;6528;48.086;16.282;2023-02-04T03:28:05;1.13;;;0.80;;
12921;SDS011;6528;48.086;16.282;2023-02-04T03:30:32;2.27;;;0.80;;
12921;SDS011;6528;48.086;16.282;2023-02-04T03:32:59;0.97;;;0.60;;
12921;SDS011;6528;48.086;16.282;2023-02-04T03:35:26;0.70;;;0.60;;
12921;SDS011;6528;48.086;16.282;2023-02-04T03:37:53;1.70;;;0.83;;
12921;SDS011;6528;48.086;16.282;2023-02-04T03:40:20;1.77;;;0.70;;
12921;SDS011;6528;48.086;16.282;2023-02-04T03:42:46;2.30;;;0.90;;
12921;SDS011;6528;48.086;16.282;2023-02-04T03:45:13;1.30;;;0.63;;
12921;SDS011;6528;48.086;16.282;2023-02-04T03:47:40;1.37;;;0.70;;
12921;SDS011;6528;48.086;16.282;2023-02-04T03:50:07;1.10;;;0.60;;
12921;SDS011;6528;48.086;16.282;2023-02-04T03:52:36;1.60;;;1.10;;
12921;SDS011;6528;48.086;16.282;2023-02-04T03:55:03;0.70;;;0.60;;
12921;SDS011;6528;48.086;16.282;2023-02-04T03:57:30;2.10;;;0.80;;
12921;SDS011;6528;48.086;16.282;2023-02-04T03:59:56;3.20;;;0.80;;
12921;SDS011;6528;48.086;16.282;2023-02-04T04:02:23;1.33;;;0.83;;
12921;SDS011;6528;48.086;16.282;2023-02-04T04:04:50;2.07;;;0.60;;
12921;SDS011;6528;48.086;16.282;2023-02-04T04:07:16;3.60;;;0.70;;
12921;SDS011;6528;48.086;16.282;2023-02-04T04:09:43;1.37;;;0.70;;
12921;SDS011;6528;48.086;16.282;2023-02-04T04:12:10;1.23;;;0.63;;
12921;SDS011;6528;48.086;16.282;2023-02-04T04:14:37;2.50;;;0.70;;
12921;SDS011;6528;48.086;16.282;2023-02-04T04:17:04;1.60;;;0.60;;
12921;SDS011;6528;48.086;16.282;2023-02-04T04:19:30;1.30;;;0.70;;
12921;SDS011;6528;48.086;16.282;2023-02-04T04:21:58;1.10;;;0.70;;
12921;SDS011;6528;48.086;16.282;2023-02-04T04:24:25;1.10;;;0.80;;
12921;SDS011;6528;48.086;16.282;2023-02-04T04:26:51;1.13;;;0.87;;
12921;SDS011;6528;48.086;16.282;2023-02-04T04:29:18;1.00;;;0.80;;
12921;SDS011;6528;48.086;16.282;2023-02-04T04:31:45;0.80;;;0.80;;
12921;SDS011;6528;48.086;16.282;2023-02-04T04:34:12;1.40;;;0.80;;
12921;SDS011;6528;48.086;16.282;2023-02-04T04:36:38;2.60;;;1.00;;
12921;SDS011;6528;48.086;16.282;2023-02-04T04:39:05;1.07;;;0.40;;
12921;SDS011;6528;48.086;16.282;2023-02-04T04:41:32;2.13;;;1.20;;
12921;SDS011;6528;48.086;16.282;2023-02-04T04:43:58;1.43;;;1.33;;
12921;SDS011;6528;48.086;16.282;2023-02-04T04:46:25;2.03;;;1.40;;
12921;SDS011;6528;48.086;16.282;2023-02-04T04:48:52;1.80;;;1.50;;
12921;SDS011;6528;48.086;16.282;2023-02-04T04:51:18;1.57;;;1.30;;
12921;SDS011;6528;48.086;16.282;2023-02-04T04:53:45;3.33;;;1.97;;
12921;SDS011;6528;48.086;16.282;2023-02-04T04:56:12;1.53;;;1.43;;
12921;SDS011;6528;48.086;16.282;2023-02-04T04:58:39;2.20;;;2.00;;
12921;SDS011;6528;48.086;16.282;2023-02-04T05:01:05;2.10;;;1.90;;
12921;SDS011;6528;48.086;16.282;2023-02-04T05:03:32;1.73;;;1.60;;
12921;SDS011;6528;48.086;16.282;2023-02-04T05:05:59;2.20;;;1.47;;
12921;SDS011;6528;48.086;16.282;2023-02-04T05:08:26;2.97;;;1.80;;
12921;SDS011;6528;48.086;16.282;2023-02-04T05:10:52;2.07;;;1.90;;
12921;SDS011;6528;48.086;16.282;2023-02-04T05:13:19;1.50;;;1.40;;
12921;SDS011;6528;48.086;16.282;2023-02-04T05:15:46;1.60;;;1.50;;
12921;SDS011;6528;48.086;16.282;2023-02-04T05:18:13;1.80;;;1.70;;
12921;SDS011;6528;48.086;16.282;2023-02-04T05:20:39;1.77;;;1.63;;
12921;SDS011;6528;48.086;16.282;2023-02-04T05:23:06;1.83;;;1.70;;
12921;SDS011;6528;48.086;16.282;2023-02-04T05:25:33;0.73;;;0.73;;
12921;SDS011;6528;48.086;16.282;2023-02-04T05:27:59;1.20;;;1.10;;
12921;SDS011;6528;48.086;16.282;2023-02-04T05:30:26;1.47;;;1.37;;
12921;SDS011;6528;48.086;16.282;2023-02-04T05:32:53;1.23;;;1.13;;
12921;SDS011;6528;48.086;16.282;2023-02-04T05:35:20;1.63;;;1.53;;
12921;SDS011;6528;48.086;16.282;2023-02-04T05:37:47;2.67;;;1.20;;
12921;SDS011;6528;48.086;16.282;2023-02-04T05:40:13;1.60;;;1.50;;
12921;SDS011;6528;48.086;16.282;2023-02-04T05:42:40;1.13;;;1.13;;
12921;SDS011;6528;48.086;16.282;2023-02-04T05:45:16;0.80;;;0.70;;
12921;SDS011;6528;48.086;16.282;2023-02-04T05:47:44;1.00;;;0.97;;
12921;SDS011;6528;48.086;16.282;2023-02-04T05:50:11;1.37;;;1.20;;
12921;SDS011;6528;48.086;16.282;2023-02-04T05:52:37;1.63;;;1.20;;
12921;SDS011;6528;48.086;16.282;2023-02-04T05:55:05;1.13;;;1.03;;
12921;SDS011;6528;48.086;16.282;2023-02-04T05:57:33;1.20;;;1.10;;
12921;SDS011;6528;48.086;16.282;2023-02-04T05:59:59;0.70;;;0.70;;
12921;SDS011;6528;48.086;16.282;2023-02-04T06:02:26;0.83;;;0.83;;
12921;SDS011;6528;48.086;16.282;2023-02-04T06:04:53;1.20;;;1.10;;
12921;SDS011;6528;48.086;16.282;2023-02-04T06:07:20;1.37;;;1.03;;
12921;SDS011;6528;48.086;16.282;2023-02-04T06:09:46;1.20;;;1.10;;
12921;SDS011;6528;48.086;16.282;2023-02-04T06:12:13;1.17;;;1.17;;
12921;SDS011;6528;48.086;16.282;2023-02-04T06:14:40;1.83;;;1.20;;
12921;SDS011;6528;48.086;16.282;2023-02-04T06:17:06;1.10;;;1.07;;
12921;SDS011;6528;48.086;16.282;2023-02-04T06:19:33;1.10;;;1.10;;
12921;SDS011;6528;48.086;16.282;2023-02-04T06:22:00;1.10;;;1.00;;
12921;SDS011;6528;48.086;16.282;2023-02-04T06:24:27;1.40;;;1.30;;
12921;SDS011;6528;48.086;16.282;2023-02-04T06:26:53;1.17;;;1.07;;
12921;SDS011;6528;48.086;16.282;2023-02-04T06:29:20;0.90;;;0.90;;
12921;SDS011;6528;48.086;16.282;2023-02-04T06:31:47;1.40;;;1.30;;
12921;SDS011;6528;48.086;16.282;2023-02-04T06:34:14;1.07;;;1.07;;
12921;SDS011;6528;48.086;16.282;2023-02-04T06:36:41;1.30;;;1.20;;
12921;SDS011;6528;48.086;16.282;2023-02-04T06:39:08;1.30;;;1.20;;
12921;SDS011;6528;48.086;16.282;2023-02-04T06:41:34;2.23;;;1.17;;
12921;SDS011;6528;48.086;16.282;2023-02-04T06:44:01;1.60;;;1.50;;
12921;SDS011;6528;48.086;16.282;2023-02-04T06:46:28;1.53;;;1.43;;
12921;SDS011;6528;48.086;16.282;2023-02-04T06:48:55;1.40;;;1.30;;
12921;SDS011;6528;48.086;16.282;2023-02-04T06:51:21;1.40;;;1.30;;
12921;SDS011;6528;48.086;16.282;2023-02-04T06:53:48;1.57;;;1.47;;
12921;SDS011;6528;48.086;16.282;2023-02-04T06:56:15;1.27;;;1.27;;
12921;SDS011;6528;48.086;16.282;2023-02-04T06:58:42;1.00;;;0.97;;
12921;SDS011;6528;48.086;16.282;2023-02-04T07:01:08;1.60;;;1.50;;
12921;SDS011;6528;48.086;16.282;2023-02-04T07:03:35;1.20;;;1.20;;
12921;SDS011;6528;48.086;16.282;2023-02-04T07:06:02;1.93;;;1.80;;
12921;SDS011;6528;48.086;16.282;2023-02-04T07:08:29;1.30;;;1.30;;
12921;SDS011;6528;48.086;16.282;2023-02-04T07:10:55;1.70;;;1.60;;
12921;SDS011;6528;48.086;16.282;2023-02-04T07:13:22;1.53;;;1.43;;
12921;SDS011;6528;48.086;16.282;2023-02-04T07:15:49;1.50;;;1.40;;
12921;SDS011;6528;48.086;16.282;2023-02-04T07:18:17;1.60;;;1.50;;
12921;SDS011;6528;48.086;16.282;2023-02-04T07:20:45;2.20;;;1.43;;
12921;SDS011;6528;48.086;16.282;2023-02-04T07:23:11;1.87;;;1.77;;
12921;SDS011;6528;48.086;16.282;2023-02-04T07:25:38;1.67;;;1.57;;
12921;SDS011;6528;48.086;16.282;2023-02-04T07:28:05;2.00;;;1.53;;
12921;SDS011;6528;48.086;16.282;2023-02-04T07:30:32;2.10;;;1.50;;
12921;SDS011;6528;48.086;16.282;2023-02-04T07:33:00;1.83;;;1.70;;
12921;SDS011;6528;48.086;16.282;2023-02-04T07:35:27;2.73;;;1.80;;
12921;SDS011;6528;48.086;16.282;2023-02-04T07:37:53;1.90;;;1.70;;
12921;SDS011;6528;48.086;16.282;2023-02-04T07:40:20;2.07;;;1.93;;
12921;SDS011;6528;48.086;16.282;2023-02-04T07:42:47;3.57;;;1.57;;
12921;SDS011;6528;48.086;16.282;2023-02-04T07:45:13;1.87;;;1.77;;
12921;SDS011;6528;48.086;16.282;2023-02-04T07:47:40;2.43;;;1.90;;
12921;SDS011;6528;48.086;16.282;2023-02-04T07:50:07;2.43;;;2.03;;
12921;SDS011;6528;48.086;16.282;2023-02-04T07:52:34;1.93;;;1.70;;
12921;SDS011;6528;48.086;16.282;2023-02-04T07:55:01;3.23;;;1.80;;
12921;SDS011;6528;48.086;16.282;2023-02-04T07:57:28;3.60;;;2.10;;
12921;SDS011;6528;48.086;16.282;2023-02-04T07:59:55;2.70;;;2.13;;
12921;SDS011;6528;48.086;16.282;2023-02-04T08:02:22;2.13;;;1.80;;
12921;SDS011;6528;48.086;16.282;2023-02-04T08:04:48;4.17;;;2.63;;
12921;SDS011;6528;48.086;16.282;2023-02-04T08:07:15;5.73;;;1.80;;
12921;SDS011;6528;48.086;16.282;2023-02-04T08:09:42;2.37;;;2.00;;
12921;SDS011;6528;48.086;16.282;2023-02-04T08:12:09;5.63;;;2.23;;
12921;SDS011;6528;48.086;16.282;2023-02-04T08:14:35;4.40;;;2.10;;
12921;SDS011;6528;48.086;16.282;2023-02-04T08:17:02;3.60;;;2.07;;
12921;SDS011;6528;48.086;16.282;2023-02-04T08:19:29;3.97;;;1.77;;
12921;SDS011;6528;48.086;16.282;2023-02-04T08:21:55;2.87;;;2.00;;
12921;SDS011;6528;48.086;16.282;2023-02-04T08:24:22;4.57;;;1.87;;
12921;SDS011;6528;48.086;16.282;2023-02-04T08:26:49;3.90;;;1.67;;
12921;SDS011;6528;48.086;16.282;2023-02-04T08:29:17;2.60;;;2.03;;
12921;SDS011;6528;48.086;16.282;2023-02-04T08:31:43;1.90;;;1.70;;
12921;SDS011;6528;48.086;16.282;2023-02-04T08:34:11;2.83;;;1.43;;
12921;SDS011;6528;48.086;16.282;2023-02-04T08:36:38;1.70;;;1.37;;
12921;SDS011;6528;48.086;16.282;2023-02-04T08:39:05;1.77;;;1.67;;
12921;SDS011;6528;48.086;16.282;2023-02-04T08:41:32;2.63;;;1.80;;
12921;SDS011;6528;48.086;16.282;2023-02-04T08:43:59;1.47;;;1.37;;
12921;SDS011;6528;48.086;16.282;2023-02-04T08:46:25;1.70;;;1.60;;
12921;SDS011;6528;48.086;16.282;2023-02-04T08:48:52;1.50;;;1.40;;
12921;SDS011;6528;48.086;16.282;2023-02-04T08:51:19;1.30;;;1.20;;
12921;SDS011;6528;48.086;16.282;2023-02-04T08:53:46;2.50;;;1.80;;
12921;SDS011;6528;48.086;16.282;2023-02-04T08:56:12;2.10;;;1.60;;
12921;SDS011;6528;48.086;16.282;2023-02-04T08:58:45;1.70;;;1.60;;
12921;SDS011;6528;48.086;16.282;2023-02-04T09:01:13;1.67;;;1.57;;
12921;SDS011;6528;48.086;16.282;2023-02-04T09:03:41;2.57;;;1.60;;
12921;SDS011;6528;48.086;16.282;2023-02-04T09:06:07;2.00;;;1.80;;
12921;SDS011;6528;48.086;16.282;2023-02-04T09:08:35;2.13;;;1.63;;
12921;SDS011;6528;48.086;16.282;2023-02-04T09:11:01;1.90;;;1.70;;
12921;SDS011;6528;48.086;16.282;2023-02-04T09:13:29;3.70;;;2.10;;
12921;SDS011;6528;48.086;16.282;2023-02-04T09:15:57;2.93;;;1.63;;
12921;SDS011;6528;48.086;16.282;2023-02-04T09:18:24;2.00;;;1.80;;
12921;SDS011;6528;48.086;16.282;2023-02-04T09:20:51;2.57;;;2.37;;
12921;SDS011;6528;48.086;16.282;2023-02-04T09:23:18;1.60;;;1.50;;
12921;SDS011;6528;48.086;16.282;2023-02-04T09:25:45;1.40;;;1.30;;
12921;SDS011;6528;48.086;16.282;2023-02-04T09:28:12;2.30;;;2.20;;
12921;SDS011;6528;48.086;16.282;2023-02-04T09:30:42;1.80;;;1.70;;
12921;SDS011;6528;48.086;16.282;2023-02-04T09:33:11;1.90;;;1.60;;
12921;SDS011;6528;48.086;16.282;2023-02-04T09:35:39;1.90;;;1.80;;
12921;SDS011;6528;48.086;16.282;2023-02-04T09:38:06;1.60;;;1.50;;
12921;SDS011;6528;48.086;16.282;2023-02-04T09:40:33;2.73;;;2.10;;
12921;SDS011;6528;48.086;16.282;2023-02-04T09:43:06;2.13;;;2.03;;
12921;SDS011;6528;48.086;16.282;2023-02-04T09:45:37;1.70;;;1.60;;
12921;SDS011;6528;48.086;16.282;2023-02-04T09:48:04;1.70;;;1.60;;
12921;SDS011;6528;48.086;16.282;2023-02-04T09:50:35;1.80;;;1.70;;
12921;SDS011;6528;48.086;16.282;2023-02-04T09:53:03;1.50;;;1.40;;
12921;SDS011;6528;48.086;16.282;2023-02-04T09:55:33;1.80;;;1.70;;
12921;SDS011;6528;48.086;16.282;2023-02-04T09:58:04;1.60;;;1.50;;
12921;SDS011;6528;48.086;16.282;2023-02-04T10:00:44;2.47;;;2.27;;
12921;SDS011;6528;48.086;16.282;2023-02-04T10:03:16;9.53;;;5.00;;
12921;SDS011;6528;48.086;16.282;2023-02-04T10:05:46;16.27;;;7.07;;
12921;SDS011;6528;48.086;16.282;2023-02-04T10:08:15;28.70;;;11.30;;
12921;SDS011;6528;48.086;16.282;2023-02-04T10:10:47;38.13;;;16.17;;
12921;SDS011;6528;48.086;16.282;2023-02-04T10:13:18;39.53;;;15.80;;
12921;SDS011;6528;48.086;16.282;2023-02-04T10:15:48;36.60;;;15.37;;
12921;SDS011;6528;48.086;16.282;2023-02-04T10:18:19;42.13;;;17.30;;
12921;SDS011;6528;48.086;16.282;2023-02-04T10:21:07;42.40;;;17.00;;
12921;SDS011;6528;48.086;16.282;2023-02-04T10:23:39;48.93;;;18.50;;
12921;SDS011;6528;48.086;16.282;2023-02-04T10:26:09;50.17;;;19.10;;
12921;SDS011;6528;48.086;16.282;2023-02-04T10:28:39;45.93;;;18.50;;
12921;SDS011;6528;48.086;16.282;2023-02-04T10:31:25;41.50;;;17.13;;
12921;SDS011;6528;48.086;16.282;2023-02-04T10:36:36;34.27;;;15.30;;
12921;SDS011;6528;48.086;16.282;2023-02-04T10:39:13;38.03;;;15.80;;
12921;SDS011;6528;48.086;16.282;2023-02-04T10:44:25;34.50;;;14.00;;
12921;SDS011;6528;48.086;16.282;2023-02-04T10:46:57;29.80;;;13.77;;
12921;SDS011;6528;48.086;16.282;2023-02-04T10:49:29;30.80;;;13.70;;
12921;SDS011;6528;48.086;16.282;2023-02-04T10:51:56;28.13;;;13.27;;
12921;SDS011;6528;48.086;16.282;2023-02-04T10:54:34;29.43;;;11.90;;
12921;SDS011;6528;48.086;16.282;2023-02-04T10:57:06;24.77;;;10.60;;
12921;SDS011;6528;48.086;16.282;2023-02-04T10:59:36;25.90;;;10.30;;
12921;SDS011;6528;48.086;16.282;2023-02-04T11:02:13;25.37;;;10.07;;
12921;SDS011;6528;48.086;16.282;2023-02-04T11:05:01;21.30;;;10.43;;
12921;SDS011;6528;48.086;16.282;2023-02-04T11:07:29;22.43;;;9.30;;
12921;SDS011;6528;48.086;16.282;2023-02-04T11:09:56;14.60;;;8.20;;
12921;SDS011;6528;48.086;16.282;2023-02-04T11:12:34;17.77;;;9.03;;
12921;SDS011;6528;48.086;16.282;2023-02-04T11:15:05;16.13;;;8.57;;
12921;SDS011;6528;48.086;16.282;2023-02-04T11:17:33;21.73;;;9.13;;
12921;SDS011;6528;48.086;16.282;2023-02-04T11:20:12;17.63;;;8.43;;
12921;SDS011;6528;48.086;16.282;2023-02-04T11:22:42;23.23;;;7.80;;
12921;SDS011;6528;48.086;16.282;2023-02-04T11:27:56;15.33;;;7.63;;
12921;SDS011;6528;48.086;16.282;2023-02-04T11:30:23;12.90;;;6.90;;
12921;SDS011;6528;48.086;16.282;2023-02-04T11:33:02;15.20;;;7.03;;
12921;SDS011;6528;48.086;16.282;2023-02-04T11:35:56;13.53;;;7.87;;
12921;SDS011;6528;48.086;16.282;2023-02-04T11:38:27;14.60;;;7.00;;
12921;SDS011;6528;48.086;16.282;2023-02-04T11:40:57;13.37;;;7.33;;
12921;SDS011;6528;48.086;16.282;2023-02-04T11:43:25;15.00;;;6.87;;
12921;SDS011;6528;48.086;16.282;2023-02-04T11:46:02;13.70;;;6.47;;
12921;SDS011;6528;48.086;16.282;2023-02-04T11:48:38;12.37;;;6.77;;
12921;SDS011;6528;48.086;16.282;2023-02-04T11:51:10;12.67;;;6.47;;
12921;SDS011;6528;48.086;16.282;2023-02-04T11:53:40;8.83;;;5.90;;
12921;SDS011;6528;48.086;16.282;2023-02-04T11:56:13;9.97;;;5.50;;
12921;SDS011;6528;48.086;16.282;2023-02-04T11:58:45;8.27;;;4.70;;
12921;SDS011;6528;48.086;16.282;2023-02-04T12:01:29;8.87;;;5.00;;
12921;SDS011;6528;48.086;16.282;2023-02-04T12:03:58;10.77;;;4.73;;
12921;SDS011;6528;48.086;16.282;2023-02-04T12:06:30;9.17;;;4.90;;
12921;SDS011;6528;48.086;16.282;2023-02-04T12:09:05;12.27;;;6.83;;
12921;SDS011;6528;48.086;16.282;2023-02-04T12:11:55;10.80;;;7.37;;
12921;SDS011;6528;48.086;16.282;2023-02-04T12:14:41;16.40;;;8.83;;
12921;SDS011;6528;48.086;16.282;2023-02-04T12:17:15;15.63;;;8.77;;
12921;SDS011;6528;48.086;16.282;2023-02-04T12:19:43;14.17;;;8.70;;
12921;SDS011;6528;48.086;16.282;2023-02-04T12:22:10;17.97;;;9.03;;
12921;SDS011;6528;48.086;16.282;2023-02-04T12:24:36;13.80;;;8.40;;
12921;SDS011;6528;48.086;16.282;2023-02-04T12:27:03;12.10;;;7.43;;
12921;SDS011;6528;48.086;16.282;2023-02-04T12:29:30;13.83;;;6.57;;
12921;SDS011;6528;48.086;16.282;2023-02-04T12:31:56;13.67;;;7.10;;
12921;SDS011;6528;48.086;16.282;2023-02-04T12:34:23;10.43;;;6.03;;
12921;SDS011;6528;48.086;16.282;2023-02-04T12:36:50;12.90;;;6.47;;
12921;SDS011;6528;48.086;16.282;2023-02-04T12:39:17;9.60;;;6.53;;
12921;SDS011;6528;48.086;16.282;2023-02-04T12:41:43;11.83;;;6.43;;
12921;SDS011;6528;48.086;16.282;2023-02-04T12:44:10;12.50;;;6.80;;
12921;SDS011;6528;48.086;16.282;2023-02-04T12:46:37;11.00;;;7.07;;
12921;SDS011;6528;48.086;16.282;2023-02-04T12:49:05;16.60;;;7.57;;
12921;SDS011;6528;48.086;16.282;2023-02-04T12:51:34;11.73;;;6.80;;
12921;SDS011;6528;48.086;16.282;2023-02-04T12:54:01;12.73;;;6.50;;
12921;SDS011;6528;48.086;16.282;2023-02-04T12:56:28;12.03;;;6.23;;
12921;SDS011;6528;48.086;16.282;2023-02-04T12:58:54;10.50;;;5.87;;
12921;SDS011;6528;48.086;16.282;2023-02-04T13:01:21;10.13;;;6.20;;
12921;SDS011;6528;48.086;16.282;2023-02-04T13:03:48;9.37;;;6.03;;
12921;SDS011;6528;48.086;16.282;2023-02-04T13:06:15;8.93;;;5.60;;
12921;SDS011;6528;48.086;16.282;2023-02-04T13:08:41;14.40;;;5.97;;
12921;SDS011;6528;48.086;16.282;2023-02-04T13:11:08;9.00;;;5.20;;
12921;SDS011;6528;48.086;16.282;2023-02-04T13:13:35;8.90;;;5.60;;
12921;SDS011;6528;48.086;16.282;2023-02-04T13:16:01;9.40;;;4.50;;
12921;SDS011;6528;48.086;16.282;2023-02-04T13:18:28;12.70;;;5.67;;
12921;SDS011;6528;48.086;16.282;2023-02-04T13:20:55;6.43;;;4.50;;
12921;SDS011;6528;48.086;16.282;2023-02-04T13:23:22;11.07;;;4.90;;
12921;SDS011;6528;48.086;16.282;2023-02-04T13:25:48;7.40;;;4.60;;
12921;SDS011;6528;48.086;16.282;2023-02-04T13:28:15;6.93;;;4.37;;
12921;SDS011;6528;48.086;16.282;2023-02-04T13:30:42;5.17;;;4.07;;
12921;SDS011;6528;48.086;16.282;2023-02-04T13:33:09;5.97;;;4.13;;
12921;SDS011;6528;48.086;16.282;2023-02-04T13:35:36;6.80;;;4.37;;
12921;SDS011;6528;48.086;16.282;2023-02-04T13:38:03;5.50;;;4.03;;
12921;SDS011;6528;48.086;16.282;2023-02-04T13:40:30;5.33;;;3.83;;
12921;SDS011;6528;48.086;16.282;2023-02-04T13:42:56;8.20;;;4.50;;
12921;SDS011;6528;48.086;16.282;2023-02-04T13:45:23;6.43;;;3.93;;
12921;SDS011;6528;48.086;16.282;2023-02-04T13:47:50;4.63;;;3.43;;
12921;SDS011;6528;48.086;16.282;2023-02-04T13:50:17;4.90;;;3.27;;
12921;SDS011;6528;48.086;16.282;2023-02-04T13:52:44;4.30;;;3.30;;
12921;SDS011;6528;48.086;16.282;2023-02-04T13:55:10;4.10;;;2.87;;
12921;SDS011;6528;48.086;16.282;2023-02-04T13:57:39;3.47;;;3.10;;
12921;SDS011;6528;48.086;16.282;2023-02-04T14:00:05;3.73;;;2.80;;
12921;SDS011;6528;48.086;16.282;2023-02-04T14:02:33;3.33;;;2.60;;
12921;SDS011;6528;48.086;16.282;2023-02-04T14:05:00;4.63;;;2.60;;
12921;SDS011;6528;48.086;16.282;2023-02-04T14:07:26;3.97;;;2.87;;
12921;SDS011;6528;48.086;16.282;2023-02-04T14:09:53;2.87;;;2.33;;
12921;SDS011;6528;48.086;16.282;2023-02-04T14:12:20;2.90;;;2.20;;
12921;SDS011;6528;48.086;16.282;2023-02-04T14:14:47;3.40;;;2.40;;
12921;SDS011;6528;48.086;16.282;2023-02-04T14:17:13;2.57;;;2.37;;
12921;SDS011;6528;48.086;16.282;2023-02-04T14:19:40;3.63;;;2.20;;
12921;SDS011;6528;48.086;16.282;2023-02-04T14:22:07;2.07;;;1.67;;
12921;SDS011;6528;48.086;16.282;2023-02-04T14:24:38;4.40;;;2.87;;
12921;SDS011;6528;48.086;16.282;2023-02-04T14:27:07;2.70;;;2.10;;
12921;SDS011;6528;48.086;16.282;2023-02-04T14:29:34;2.80;;;2.27;;
12921;SDS011;6528;48.086;16.282;2023-02-04T14:32:03;2.63;;;2.20;;
12921;SDS011;6528;48.086;16.282;2023-02-04T14:34:30;2.37;;;2.17;;
12921;SDS011;6528;48.086;16.282;2023-02-04T14:36:56;2.40;;;2.03;;
12921;SDS011;6528;48.086;16.282;2023-02-04T14:39:23;2.10;;;1.87;;
12921;SDS011;6528;48.086;16.282;2023-02-04T14:41:50;2.00;;;1.83;;
12921;SDS011;6528;48.086;16.282;2023-02-04T14:44:17;1.50;;;1.30;;
12921;SDS011;6528;48.086;16.282;2023-02-04T14:46:46;2.30;;;2.03;;
12921;SDS011;6528;48.086;16.282;2023-02-04T14:49:17;1.67;;;1.40;;
12921;SDS011;6528;48.086;16.282;2023-02-04T14:51:44;2.10;;;1.90;;
12921;SDS011;6528;48.086;16.282;2023-02-04T14:54:10;2.63;;;2.00;;
12921;SDS011;6528;48.086;16.282;2023-02-04T14:56:37;1.30;;;1.20;;
12921;SDS011;6528;48.086;16.282;2023-02-04T14:59:04;2.30;;;1.37;;